sensor_id;sensor_type;location;lat;lon;timestamp;temperature;humidity
16686;DHT22;8456;51.136;4.210;2022-09-09T00:00:19;15.70;99.90
16686;DHT22;8456;51.136;4.210;2022-09-09T00:03:12;15.70;99.90
16686;DHT22;8456;51.136;4.210;2022-09-09T00:05:55;15.60;99.90
16686;DHT22;8456;51.136;4.210;2022-09-09T00:11:07;15.50;99.90
16686;DHT22;8456;51.136;4.210;2022-09-09T00:13:49;15.50;99.90
16686;DHT22;8456;51.136;4.210;2022-09-09T00:16:22;15.50;99.90
16686;DHT22;8456;51.136;4.210;2022-09-09T00:18:55;15.40;99.90
16686;DHT22;8456;51.136;4.210;2022-09-09T00:21:35;15.50;99.90
16686;DHT22;8456;51.136;4.210;2022-09-09T00:24:23;15.50;99.90
16686;DHT22;8456;51.136;4.210;2022-09-09T00:26:55;15.50;99.90
16686;DHT22;8456;51.136;4.210;2022-09-09T00:29:51;15.50;99.90
16686;DHT22;8456;51.136;4.210;2022-09-09T00:32:20;15.60;99.90
16686;DHT22;8456;51.136;4.210;2022-09-09T00:35:01;15.60;99.90
16686;DHT22;8456;51.136;4.210;2022-09-09T00:37:28;15.50;99.90
16686;DHT22;8456;51.136;4.210;2022-09-09T00:39:59;15.50;99.90
16686;DHT22;8456;51.136;4.210;2022-09-09T00:42:44;15.50;99.90
16686;DHT22;8456;51.136;4.210;2022-09-09T00:45:48;15.50;99.90
16686;DHT22;8456;51.136;4.210;2022-09-09T00:48:21;15.40;99.90
16686;DHT22;8456;51.136;4.210;2022-09-09T00:50:57;15.50;99.90
16686;DHT22;8456;51.136;4.210;2022-09-09T00:56:20;15.40;99.90
16686;DHT22;8456;51.136;4.210;2022-09-09T00:59:21;15.40;99.90
16686;DHT22;8456;51.136;4.210;2022-09-09T01:01:50;15.50;99.90
16686;DHT22;8456;51.136;4.210;2022-09-09T01:04:24;15.40;99.90
16686;DHT22;8456;51.136;4.210;2022-09-09T01:07:00;15.50;99.90
16686;DHT22;8456;51.136;4.210;2022-09-09T01:12:41;15.50;99.90
16686;DHT22;8456;51.136;4.210;2022-09-09T01:15:24;15.50;99.90
16686;DHT22;8456;51.136;4.210;2022-09-09T01:18:03;15.50;99.90
16686;DHT22;8456;51.136;4.210;2022-09-09T01:23:42;15.30;99.90
16686;DHT22;8456;51.136;4.210;2022-09-09T01:26:41;15.30;99.90
16686;DHT22;8456;51.136;4.210;2022-09-09T01:29:15;15.20;99.90
16686;DHT22;8456;51.136;4.210;2022-09-09T01:31:53;15.20;99.90
16686;DHT22;8456;51.136;4.210;2022-09-09T01:34:21;15.20;99.90
16686;DHT22;8456;51.136;4.210;2022-09-09T01:39:18;15.20;99.90
16686;DHT22;8456;51.136;4.210;2022-09-09T01:41:48;15.20;99.90
16686;DHT22;8456;51.136;4.210;2022-09-09T01:44:17;15.20;99.90
16686;DHT22;8456;51.136;4.210;2022-09-09T01:46:44;15.20;99.90
16686;DHT22;8456;51.136;4.210;2022-09-09T01:49:17;15.20;99.90
16686;DHT22;8456;51.136;4.210;2022-09-09T01:51:43;15.30;99.90
16686;DHT22;8456;51.136;4.210;2022-09-09T01:54:13;15.30;99.90
16686;DHT22;8456;51.136;4.210;2022-09-09T01:57:06;15.40;99.90
16686;DHT22;8456;51.136;4.210;2022-09-09T02:02:35;15.30;99.90
16686;DHT22;8456;51.136;4.210;2022-09-09T02:08:17;15.20;99.90
16686;DHT22;8456;51.136;4.210;2022-09-09T02:11:22;15.20;99.90
16686;DHT22;8456;51.136;4.210;2022-09-09T02:14:21;15.20;99.90
16686;DHT22;8456;51.136;4.210;2022-09-09T02:16:59;15.20;99.90
16686;DHT22;8456;51.136;4.210;2022-09-09T02:19:50;15.20;99.90
16686;DHT22;8456;51.136;4.210;2022-09-09T02:22:31;15.30;99.90
16686;DHT22;8456;51.136;4.210;2022-09-09T02:25:00;15.20;99.90
16686;DHT22;8456;51.136;4.210;2022-09-09T02:27:28;15.30;99.90
16686;DHT22;8456;51.136;4.210;2022-09-09T02:29:57;15.20;99.90
16686;DHT22;8456;51.136;4.210;2022-09-09T02:32:36;15.20;99.90
16686;DHT22;8456;51.136;4.210;2022-09-09T02:35:09;15.30;99.90
16686;DHT22;8456;51.136;4.210;2022-09-09T02:37:39;15.20;99.90
16686;DHT22;8456;51.136;4.210;2022-09-09T02:40:08;15.30;99.90
16686;DHT22;8456;51.136;4.210;2022-09-09T02:42:44;15.30;99.90
16686;DHT22;8456;51.136;4.210;2022-09-09T02:45:13;15.30;99.90
16686;DHT22;8456;51.136;4.210;2022-09-09T02:48:07;15.30;99.90
16686;DHT22;8456;51.136;4.210;2022-09-09T02:53:20;15.30;99.90
16686;DHT22;8456;51.136;4.210;2022-09-09T02:58:22;15.40;99.90
16686;DHT22;8456;51.136;4.210;2022-09-09T03:01:02;15.40;99.90
16686;DHT22;8456;51.136;4.210;2022-09-09T03:03:29;15.40;99.90
16686;DHT22;8456;51.136;4.210;2022-09-09T03:05:56;15.60;99.90
16686;DHT22;8456;51.136;4.210;2022-09-09T03:08:22;15.60;99.90
16686;DHT22;8456;51.136;4.210;2022-09-09T03:10:49;15.60;99.90
16686;DHT22;8456;51.136;4.210;2022-09-09T03:13:15;15.60;99.90
16686;DHT22;8456;51.136;4.210;2022-09-09T03:15:41;15.60;99.90
16686;DHT22;8456;51.136;4.210;2022-09-09T03:18:12;15.60;99.90
16686;DHT22;8456;51.136;4.210;2022-09-09T03:20:38;15.60;99.90
16686;DHT22;8456;51.136;4.210;2022-09-09T03:23:04;15.70;99.90
16686;DHT22;8456;51.136;4.210;2022-09-09T03:25:29;15.70;99.90
16686;DHT22;8456;51.136;4.210;2022-09-09T03:27:56;15.70;99.90
16686;DHT22;8456;51.136;4.210;2022-09-09T03:30:25;15.70;99.90
16686;DHT22;8456;51.136;4.210;2022-09-09T03:32:51;15.70;99.90
16686;DHT22;8456;51.136;4.210;2022-09-09T03:35:18;15.70;99.90
16686;DHT22;8456;51.136;4.210;2022-09-09T03:37:44;15.70;99.90
16686;DHT22;8456;51.136;4.210;2022-09-09T03:40:12;15.70;99.90
16686;DHT22;8456;51.136;4.210;2022-09-09T03:42:39;15.60;99.90
16686;DHT22;8456;51.136;4.210;2022-09-09T03:45:06;15.60;99.90
16686;DHT22;8456;51.136;4.210;2022-09-09T03:47:33;15.60;99.90
16686;DHT22;8456;51.136;4.210;2022-09-09T03:50:05;15.60;99.90
16686;DHT22;8456;51.136;4.210;2022-09-09T03:52:36;15.60;99.90
16686;DHT22;8456;51.136;4.210;2022-09-09T03:55:04;15.60;99.90
16686;DHT22;8456;51.136;4.210;2022-09-09T03:57:30;15.60;99.90
16686;DHT22;8456;51.136;4.210;2022-09-09T03:59:56;15.60;99.90
16686;DHT22;8456;51.136;4.210;2022-09-09T04:02:23;15.60;99.90
16686;DHT22;8456;51.136;4.210;2022-09-09T04:04:49;15.60;99.90
16686;DHT22;8456;51.136;4.210;2022-09-09T04:07:16;15.60;99.90
16686;DHT22;8456;51.136;4.210;2022-09-09T04:09:42;15.60;99.90
16686;DHT22;8456;51.136;4.210;2022-09-09T04:12:08;15.70;99.90
16686;DHT22;8456;51.136;4.210;2022-09-09T04:14:34;15.60;99.90
16686;DHT22;8456;51.136;4.210;2022-09-09T04:17:02;15.50;99.90
16686;DHT22;8456;51.136;4.210;2022-09-09T04:19:32;15.50;99.90
16686;DHT22;8456;51.136;4.210;2022-09-09T04:21:58;15.50;99.90
16686;DHT22;8456;51.136;4.210;2022-09-09T04:24:24;15.50;99.90
16686;DHT22;8456;51.136;4.210;2022-09-09T04:26:54;15.50;99.90
16686;DHT22;8456;51.136;4.210;2022-09-09T04:29:20;15.60;99.90
16686;DHT22;8456;51.136;4.210;2022-09-09T04:31:45;15.50;99.90
16686;DHT22;8456;51.136;4.210;2022-09-09T04:34:12;15.50;99.90
16686;DHT22;8456;51.136;4.210;2022-09-09T04:36:38;15.60;99.90
16686;DHT22;8456;51.136;4.210;2022-09-09T04:39:06;15.50;99.90
16686;DHT22;8456;51.136;4.210;2022-09-09T04:41:32;15.60;99.90
16686;DHT22;8456;51.136;4.210;2022-09-09T04:43:58;15.60;99.90
16686;DHT22;8456;51.136;4.210;2022-09-09T04:46:26;15.60;99.90
16686;DHT22;8456;51.136;4.210;2022-09-09T04:48:52;15.60;99.90
16686;DHT22;8456;51.136;4.210;2022-09-09T04:51:19;15.60;99.90
16686;DHT22;8456;51.136;4.210;2022-09-09T04:53:47;15.70;99.90
16686;DHT22;8456;51.136;4.210;2022-09-09T04:56:16;15.70;99.90
16686;DHT22;8456;51.136;4.210;2022-09-09T04:58:51;15.70;99.90
16686;DHT22;8456;51.136;4.210;2022-09-09T05:01:22;15.80;99.90
16686;DHT22;8456;51.136;4.210;2022-09-09T05:03:50;15.70;99.90
16686;DHT22;8456;51.136;4.210;2022-09-09T05:06:21;15.60;99.90
16686;DHT22;8456;51.136;4.210;2022-09-09T05:08:49;15.60;99.90
16686;DHT22;8456;51.136;4.210;2022-09-09T05:11:22;15.70;99.90
16686;DHT22;8456;51.136;4.210;2022-09-09T05:13:52;15.70;99.90
16686;DHT22;8456;51.136;4.210;2022-09-09T05:16:19;15.70;99.90
16686;DHT22;8456;51.136;4.210;2022-09-09T05:18:46;15.80;99.90
16686;DHT22;8456;51.136;4.210;2022-09-09T05:21:14;15.80;99.90
16686;DHT22;8456;51.136;4.210;2022-09-09T05:23:40;15.90;99.90
16686;DHT22;8456;51.136;4.210;2022-09-09T05:26:11;15.90;99.90
16686;DHT22;8456;51.136;4.210;2022-09-09T05:28:37;16.00;99.90
16686;DHT22;8456;51.136;4.210;2022-09-09T05:31:05;15.90;99.90
16686;DHT22;8456;51.136;4.210;2022-09-09T05:33:35;16.00;99.90
16686;DHT22;8456;51.136;4.210;2022-09-09T05:36:07;16.00;99.90
16686;DHT22;8456;51.136;4.210;2022-09-09T05:38:34;16.00;99.90
16686;DHT22;8456;51.136;4.210;2022-09-09T05:41:01;15.90;99.90
16686;DHT22;8456;51.136;4.210;2022-09-09T05:43:29;16.00;99.90
16686;DHT22;8456;51.136;4.210;2022-09-09T05:46:04;16.00;99.90
16686;DHT22;8456;51.136;4.210;2022-09-09T05:48:32;16.10;99.90
16686;DHT22;8456;51.136;4.210;2022-09-09T05:50:58;16.10;99.90
16686;DHT22;8456;51.136;4.210;2022-09-09T05:53:26;16.10;99.90
16686;DHT22;8456;51.136;4.210;2022-09-09T05:56:04;16.10;99.90
16686;DHT22;8456;51.136;4.210;2022-09-09T05:58:33;16.20;99.90
16686;DHT22;8456;51.136;4.210;2022-09-09T06:01:07;16.20;99.90
16686;DHT22;8456;51.136;4.210;2022-09-09T06:03:37;16.30;99.90
16686;DHT22;8456;51.136;4.210;2022-09-09T06:06:05;16.20;99.90
16686;DHT22;8456;51.136;4.210;2022-09-09T06:08:33;16.40;99.90
16686;DHT22;8456;51.136;4.210;2022-09-09T06:11:10;16.40;99.90
16686;DHT22;8456;51.136;4.210;2022-09-09T06:13:38;16.50;99.90
16686;DHT22;8456;51.136;4.210;2022-09-09T06:16:08;16.60;99.90
16686;DHT22;8456;51.136;4.210;2022-09-09T06:18:34;16.50;99.90
16686;DHT22;8456;51.136;4.210;2022-09-09T06:21:03;16.50;99.90
16686;DHT22;8456;51.136;4.210;2022-09-09T06:23:31;16.60;99.90
16686;DHT22;8456;51.136;4.210;2022-09-09T06:26:12;16.70;99.90
16686;DHT22;8456;51.136;4.210;2022-09-09T06:28:39;16.70;99.90
16686;DHT22;8456;51.136;4.210;2022-09-09T06:31:10;16.70;99.90
16686;DHT22;8456;51.136;4.210;2022-09-09T06:33:38;16.70;99.90
16686;DHT22;8456;51.136;4.210;2022-09-09T06:36:16;16.80;99.90
16686;DHT22;8456;51.136;4.210;2022-09-09T06:38:44;17.10;99.90
16686;DHT22;8456;51.136;4.210;2022-09-09T06:41:13;17.10;99.90
16686;DHT22;8456;51.136;4.210;2022-09-09T06:43:40;17.10;99.90
16686;DHT22;8456;51.136;4.210;2022-09-09T06:46:10;17.20;99.90
16686;DHT22;8456;51.136;4.210;2022-09-09T06:48:38;17.20;99.90
16686;DHT22;8456;51.136;4.210;2022-09-09T06:51:15;17.10;99.90
16686;DHT22;8456;51.136;4.210;2022-09-09T06:53:43;17.20;99.90
16686;DHT22;8456;51.136;4.210;2022-09-09T06:58:39;17.30;99.90
16686;DHT22;8456;51.136;4.210;2022-09-09T07:01:13;17.30;99.90
16686;DHT22;8456;51.136;4.210;2022-09-09T07:03:40;17.30;99.90
16686;DHT22;8456;51.136;4.210;2022-09-09T07:06:08;17.30;99.90
16686;DHT22;8456;51.136;4.210;2022-09-09T07:08:35;17.20;99.90
16686;DHT22;8456;51.136;4.210;2022-09-09T07:11:05;17.20;99.90
16686;DHT22;8456;51.136;4.210;2022-09-09T07:13:35;17.20;99.90
16686;DHT22;8456;51.136;4.210;2022-09-09T07:16:10;17.20;99.90
16686;DHT22;8456;51.136;4.210;2022-09-09T07:18:37;17.20;99.90
16686;DHT22;8456;51.136;4.210;2022-09-09T07:21:03;17.20;99.90
16686;DHT22;8456;51.136;4.210;2022-09-09T07:23:30;17.20;99.90
16686;DHT22;8456;51.136;4.210;2022-09-09T07:25:59;17.30;99.90
16686;DHT22;8456;51.136;4.210;2022-09-09T07:28:26;17.40;99.90
16686;DHT22;8456;51.136;4.210;2022-09-09T07:30:58;17.50;99.90
16686;DHT22;8456;51.136;4.210;2022-09-09T07:33:25;17.60;99.90
16686;DHT22;8456;51.136;4.210;2022-09-09T07:35:52;17.60;99.90
16686;DHT22;8456;51.136;4.210;2022-09-09T07:38:21;17.60;99.90
16686;DHT22;8456;51.136;4.210;2022-09-09T07:40:48;17.60;99.90
16686;DHT22;8456;51.136;4.210;2022-09-09T07:43:14;17.70;99.90
16686;DHT22;8456;51.136;4.210;2022-09-09T07:45:41;17.70;99.90
16686;DHT22;8456;51.136;4.210;2022-09-09T07:48:08;17.80;99.90
16686;DHT22;8456;51.136;4.210;2022-09-09T07:50:35;17.80;99.90
16686;DHT22;8456;51.136;4.210;2022-09-09T07:53:01;17.80;99.90
16686;DHT22;8456;51.136;4.210;2022-09-09T07:55:28;17.80;99.90
16686;DHT22;8456;51.136;4.210;2022-09-09T07:57:55;17.90;99.90
16686;DHT22;8456;51.136;4.210;2022-09-09T08:00:22;17.80;99.90
16686;DHT22;8456;51.136;4.210;2022-09-09T08:02:53;17.90;99.90
16686;DHT22;8456;51.136;4.210;2022-09-09T08:05:20;17.90;99.90
16686;DHT22;8456;51.136;4.210;2022-09-09T08:07:48;18.00;99.90
16686;DHT22;8456;51.136;4.210;2022-09-09T08:10:14;18.10;99.90
16686;DHT22;8456;51.136;4.210;2022-09-09T08:12:43;18.10;99.90
16686;DHT22;8456;51.136;4.210;2022-09-09T08:15:09;18.10;99.90
16686;DHT22;8456;51.136;4.210;2022-09-09T08:17:34;18.20;99.90
16686;DHT22;8456;51.136;4.210;2022-09-09T08:20:04;18.30;99.90
16686;DHT22;8456;51.136;4.210;2022-09-09T08:22:30;18.60;99.90
16686;DHT22;8456;51.136;4.210;2022-09-09T08:24:56;18.60;99.90
16686;DHT22;8456;51.136;4.210;2022-09-09T08:27:23;18.70;99.90
16686;DHT22;8456;51.136;4.210;2022-09-09T08:29:49;18.80;99.90
16686;DHT22;8456;51.136;4.210;2022-09-09T08:32:16;18.70;99.90
16686;DHT22;8456;51.136;4.210;2022-09-09T08:34:44;18.80;99.90
16686;DHT22;8456;51.136;4.210;2022-09-09T08:37:14;18.90;99.90
16686;DHT22;8456;51.136;4.210;2022-09-09T08:39:42;18.90;99.90
16686;DHT22;8456;51.136;4.210;2022-09-09T08:42:17;18.90;99.90
16686;DHT22;8456;51.136;4.210;2022-09-09T08:48:10;18.80;99.90
16686;DHT22;8456;51.136;4.210;2022-09-09T08:50:40;18.80;99.90
16686;DHT22;8456;51.136;4.210;2022-09-09T08:53:18;18.70;99.90
16686;DHT22;8456;51.136;4.210;2022-09-09T08:55:56;18.40;99.90
16686;DHT22;8456;51.136;4.210;2022-09-09T08:58:47;18.30;99.90
16686;DHT22;8456;51.136;4.210;2022-09-09T09:12:40;17.90;99.90
16686;DHT22;8456;51.136;4.210;2022-09-09T09:15:24;17.90;99.90
16686;DHT22;8456;51.136;4.210;2022-09-09T09:17:53;17.90;99.90
16686;DHT22;8456;51.136;4.210;2022-09-09T09:20:40;18.00;99.90
16686;DHT22;8456;51.136;4.210;2022-09-09T09:23:16;18.00;99.90
16686;DHT22;8456;51.136;4.210;2022-09-09T09:25:45;17.90;99.90
16686;DHT22;8456;51.136;4.210;2022-09-09T09:28:24;18.00;99.90
16686;DHT22;8456;51.136;4.210;2022-09-09T09:30:59;18.00;99.90
16686;DHT22;8456;51.136;4.210;2022-09-09T09:35:56;18.10;99.90
16686;DHT22;8456;51.136;4.210;2022-09-09T09:38:27;18.10;99.90
16686;DHT22;8456;51.136;4.210;2022-09-09T09:40:58;18.10;99.90
16686;DHT22;8456;51.136;4.210;2022-09-09T09:43:30;18.10;99.90
16686;DHT22;8456;51.136;4.210;2022-09-09T09:45:59;18.00;99.90
16686;DHT22;8456;51.136;4.210;2022-09-09T09:48:26;18.00;99.90
16686;DHT22;8456;51.136;4.210;2022-09-09T09:51:00;18.00;99.90
16686;DHT22;8456;51.136;4.210;2022-09-09T09:53:30;18.00;99.90
16686;DHT22;8456;51.136;4.210;2022-09-09T09:56:08;17.90;99.90
16686;DHT22;8456;51.136;4.210;2022-09-09T09:58:50;18.00;99.90
16686;DHT22;8456;51.136;4.210;2022-09-09T10:01:31;18.20;99.90
16686;DHT22;8456;51.136;4.210;2022-09-09T10:04:01;18.30;99.90
16686;DHT22;8456;51.136;4.210;2022-09-09T10:06:36;18.50;99.90
16686;DHT22;8456;51.136;4.210;2022-09-09T10:09:29;18.70;99.90
16686;DHT22;8456;51.136;4.210;2022-09-09T10:22:35;18.70;99.90
16686;DHT22;8456;51.136;4.210;2022-09-09T10:25:08;18.70;99.90
16686;DHT22;8456;51.136;4.210;2022-09-09T10:27:52;18.70;99.90
16686;DHT22;8456;51.136;4.210;2022-09-09T10:30:42;18.70;99.90
16686;DHT22;8456;51.136;4.210;2022-09-09T10:36:02;18.80;99.90
16686;DHT22;8456;51.136;4.210;2022-09-09T10:38:45;18.70;99.90
16686;DHT22;8456;51.136;4.210;2022-09-09T11:00:22;19.00;99.90
16686;DHT22;8456;51.136;4.210;2022-09-09T11:02:56;19.20;99.90
16686;DHT22;8456;51.136;4.210;2022-09-09T11:05:29;19.40;99.90
16686;DHT22;8456;51.136;4.210;2022-09-09T11:08:02;19.40;99.90
16686;DHT22;8456;51.136;4.210;2022-09-09T11:11:04;19.40;99.90
16686;DHT22;8456;51.136;4.210;2022-09-09T11:16:29;19.40;99.90
16686;DHT22;8456;51.136;4.210;2022-09-09T11:19:30;19.30;99.90
16686;DHT22;8456;51.136;4.210;2022-09-09T11:22:27;19.30;99.90
16686;DHT22;8456;51.136;4.210;2022-09-09T11:24:53;19.40;99.90
16686;DHT22;8456;51.136;4.210;2022-09-09T11:38:52;20.00;99.90
16686;DHT22;8456;51.136;4.210;2022-09-09T11:41:20;20.00;99.90
16686;DHT22;8456;51.136;4.210;2022-09-09T11:43:51;20.20;99.90
16686;DHT22;8456;51.136;4.210;2022-09-09T11:46:31;20.30;99.90
16686;DHT22;8456;51.136;4.210;2022-09-09T11:49:04;20.50;99.90
16686;DHT22;8456;51.136;4.210;2022-09-09T11:51:32;20.50;99.90
16686;DHT22;8456;51.136;4.210;2022-09-09T11:53:59;20.60;99.90
16686;DHT22;8456;51.136;4.210;2022-09-09T11:56:32;20.60;99.90
16686;DHT22;8456;51.136;4.210;2022-09-09T11:59:04;20.60;99.90
16686;DHT22;8456;51.136;4.210;2022-09-09T12:01:40;20.60;99.90
16686;DHT22;8456;51.136;4.210;2022-09-09T12:04:13;20.70;99.90
16686;DHT22;8456;51.136;4.210;2022-09-09T12:06:50;20.90;99.90
16686;DHT22;8456;51.136;4.210;2022-09-09T12:14:55;20.90;99.90
16686;DHT22;8456;51.136;4.210;2022-09-09T12:17:23;21.10;99.90
16686;DHT22;8456;51.136;4.210;2022-09-09T12:20:54;21.20;99.90
16686;DHT22;8456;51.136;4.210;2022-09-09T12:23:12;21.30;99.90
16686;DHT22;8456;51.136;4.210;2022-09-09T12:28:45;21.30;99.90
16686;DHT22;8456;51.136;4.210;2022-09-09T12:36:37;21.20;99.90
16686;DHT22;8456;51.136;4.210;2022-09-09T12:39:24;20.90;99.90
16686;DHT22;8456;51.136;4.210;2022-09-09T12:41:53;20.80;99.90
16686;DHT22;8456;51.136;4.210;2022-09-09T12:44:26;20.80;99.90
16686;DHT22;8456;51.136;4.210;2022-09-09T12:46:56;21.10;99.90
16686;DHT22;8456;51.136;4.210;2022-09-09T12:49:39;21.30;99.90
16686;DHT22;8456;51.136;4.210;2022-09-09T12:52:30;21.30;99.90
16686;DHT22;8456;51.136;4.210;2022-09-09T12:54:55;21.30;99.90
16686;DHT22;8456;51.136;4.210;2022-09-09T12:57:23;21.40;99.90
16686;DHT22;8456;51.136;4.210;2022-09-09T13:00:04;21.40;99.90
16686;DHT22;8456;51.136;4.210;2022-09-09T13:02:31;21.40;99.90
16686;DHT22;8456;51.136;4.210;2022-09-09T13:05:08;21.20;99.90
16686;DHT22;8456;51.136;4.210;2022-09-09T13:07:39;21.30;99.90
16686;DHT22;8456;51.136;4.210;2022-09-09T13:10:05;21.40;99.90
16686;DHT22;8456;51.136;4.210;2022-09-09T13:12:31;21.60;99.90
16686;DHT22;8456;51.136;4.210;2022-09-09T13:14:57;21.60;99.90
16686;DHT22;8456;51.136;4.210;2022-09-09T13:17:24;21.60;99.90
16686;DHT22;8456;51.136;4.210;2022-09-09T13:19:52;21.80;99.90
16686;DHT22;8456;51.136;4.210;2022-09-09T13:22:37;21.90;99.90
16686;DHT22;8456;51.136;4.210;2022-09-09T13:27:51;22.20;99.90
16686;DHT22;8456;51.136;4.210;2022-09-09T13:30:29;22.10;99.90
16686;DHT22;8456;51.136;4.210;2022-09-09T13:35:54;22.40;99.90
16686;DHT22;8456;51.136;4.210;2022-09-09T13:38:21;22.50;99.90
16686;DHT22;8456;51.136;4.210;2022-09-09T13:41:18;22.60;99.90
16686;DHT22;8456;51.136;4.210;2022-09-09T13:43:47;22.50;99.90
16686;DHT22;8456;51.136;4.210;2022-09-09T13:46:40;22.30;99.90
16686;DHT22;8456;51.136;4.210;2022-09-09T13:54:08;22.40;99.90
16686;DHT22;8456;51.136;4.210;2022-09-09T13:56:36;22.40;99.90
16686;DHT22;8456;51.136;4.210;2022-09-09T13:59:04;22.30;99.90
16686;DHT22;8456;51.136;4.210;2022-09-09T14:01:30;22.20;99.90
16686;DHT22;8456;51.136;4.210;2022-09-09T14:03:56;22.20;99.90
16686;DHT22;8456;51.136;4.210;2022-09-09T14:06:22;22.30;99.90
16686;DHT22;8456;51.136;4.210;2022-09-09T14:08:50;22.30;99.90
16686;DHT22;8456;51.136;4.210;2022-09-09T14:11:16;22.40;99.90
16686;DHT22;8456;51.136;4.210;2022-09-09T14:13:42;22.40;99.90
16686;DHT22;8456;51.136;4.210;2022-09-09T14:16:08;22.40;99.90
16686;DHT22;8456;51.136;4.210;2022-09-09T14:18:35;22.40;99.90
16686;DHT22;8456;51.136;4.210;2022-09-09T14:21:01;22.40;99.90
16686;DHT22;8456;51.136;4.210;2022-09-09T14:23:28;22.50;99.90
16686;DHT22;8456;51.136;4.210;2022-09-09T14:25:55;22.50;99.90
16686;DHT22;8456;51.136;4.210;2022-09-09T14:28:21;22.50;99.90
16686;DHT22;8456;51.136;4.210;2022-09-09T14:30:47;22.30;99.90
16686;DHT22;8456;51.136;4.210;2022-09-09T14:33:14;22.30;99.90
16686;DHT22;8456;51.136;4.210;2022-09-09T14:35:40;22.30;99.90
16686;DHT22;8456;51.136;4.210;2022-09-09T14:38:07;22.30;99.90
16686;DHT22;8456;51.136;4.210;2022-09-09T14:40:37;22.30;99.90
16686;DHT22;8456;51.136;4.210;2022-09-09T14:43:04;22.40;99.90
16686;DHT22;8456;51.136;4.210;2022-09-09T14:45:31;22.20;99.90
16686;DHT22;8456;51.136;4.210;2022-09-09T14:47:57;22.20;99.90
16686;DHT22;8456;51.136;4.210;2022-09-09T14:50:23;22.10;99.90
16686;DHT22;8456;51.136;4.210;2022-09-09T14:52:50;22.00;99.90
16686;DHT22;8456;51.136;4.210;2022-09-09T14:55:16;22.00;99.90
16686;DHT22;8456;51.136;4.210;2022-09-09T14:57:42;21.70;99.90
16686;DHT22;8456;51.136;4.210;2022-09-09T15:00:09;21.60;99.90
16686;DHT22;8456;51.136;4.210;2022-09-09T15:02:36;21.40;99.90
16686;DHT22;8456;51.136;4.210;2022-09-09T15:05:02;21.40;99.90
16686;DHT22;8456;51.136;4.210;2022-09-09T15:07:28;21.40;99.90
16686;DHT22;8456;51.136;4.210;2022-09-09T15:09:54;21.30;99.90
16686;DHT22;8456;51.136;4.210;2022-09-09T15:12:20;21.40;99.90
16686;DHT22;8456;51.136;4.210;2022-09-09T15:14:47;21.50;99.90
16686;DHT22;8456;51.136;4.210;2022-09-09T15:17:13;21.50;99.90
16686;DHT22;8456;51.136;4.210;2022-09-09T15:19:39;21.50;99.90
16686;DHT22;8456;51.136;4.210;2022-09-09T15:22:05;21.40;99.90
16686;DHT22;8456;51.136;4.210;2022-09-09T15:24:32;21.30;99.90
16686;DHT22;8456;51.136;4.210;2022-09-09T15:26:58;21.10;99.90
16686;DHT22;8456;51.136;4.210;2022-09-09T15:29:25;21.00;99.90
16686;DHT22;8456;51.136;4.210;2022-09-09T15:31:51;21.10;99.90
16686;DHT22;8456;51.136;4.210;2022-09-09T15:34:18;20.90;99.90
16686;DHT22;8456;51.136;4.210;2022-09-09T15:36:45;20.80;99.90
16686;DHT22;8456;51.136;4.210;2022-09-09T15:39:16;20.80;99.90
16686;DHT22;8456;51.136;4.210;2022-09-09T15:41:43;20.70;99.90
16686;DHT22;8456;51.136;4.210;2022-09-09T15:44:10;20.40;99.90
16686;DHT22;8456;51.136;4.210;2022-09-09T15:51:29;20.10;99.90
16686;DHT22;8456;51.136;4.210;2022-09-09T15:53:57;20.10;99.90
16686;DHT22;8456;51.136;4.210;2022-09-09T15:56:24;20.10;99.90
16686;DHT22;8456;51.136;4.210;2022-09-09T15:58:50;20.10;99.90
16686;DHT22;8456;51.136;4.210;2022-09-09T16:01:18;19.90;99.90
16686;DHT22;8456;51.136;4.210;2022-09-09T16:03:45;19.90;99.90
16686;DHT22;8456;51.136;4.210;2022-09-09T16:06:18;19.90;99.90
16686;DHT22;8456;51.136;4.210;2022-09-09T16:08:45;20.00;99.90
16686;DHT22;8456;51.136;4.210;2022-09-09T16:11:17;20.10;99.90
16686;DHT22;8456;51.136;4.210;2022-09-09T16:13:46;20.20;99.90
16686;DHT22;8456;51.136;4.210;2022-09-09T16:16:13;20.40;99.90
16686;DHT22;8456;51.136;4.210;2022-09-09T16:18:42;20.50;99.90
16686;DHT22;8456;51.136;4.210;2022-09-09T16:21:17;20.50;99.90
16686;DHT22;8456;51.136;4.210;2022-09-09T16:23:44;20.40;99.90
16686;DHT22;8456;51.136;4.210;2022-09-09T16:26:15;20.40;99.90
16686;DHT22;8456;51.136;4.210;2022-09-09T16:28:41;20.30;99.90
16686;DHT22;8456;51.136;4.210;2022-09-09T16:31:09;20.10;99.90
16686;DHT22;8456;51.136;4.210;2022-09-09T16:33:36;20.00;99.90
16686;DHT22;8456;51.136;4.210;2022-09-09T16:36:07;20.00;99.90
16686;DHT22;8456;51.136;4.210;2022-09-09T16:38:33;19.80;99.90
16686;DHT22;8456;51.136;4.210;2022-09-09T16:41:01;19.80;99.90
16686;DHT22;8456;51.136;4.210;2022-09-09T16:43:28;19.80;99.90
16686;DHT22;8456;51.136;4.210;2022-09-09T16:45:53;19.90;99.90
16686;DHT22;8456;51.136;4.210;2022-09-09T16:48:19;20.00;99.90
16686;DHT22;8456;51.136;4.210;2022-09-09T16:50:45;20.00;99.90
16686;DHT22;8456;51.136;4.210;2022-09-09T16:53:12;20.00;99.90
16686;DHT22;8456;51.136;4.210;2022-09-09T16:55:41;20.10;99.90
16686;DHT22;8456;51.136;4.210;2022-09-09T16:58:10;20.10;99.90
16686;DHT22;8456;51.136;4.210;2022-09-09T17:00:36;20.00;99.90
16686;DHT22;8456;51.136;4.210;2022-09-09T17:03:02;20.00;99.90
16686;DHT22;8456;51.136;4.210;2022-09-09T17:05:28;19.90;99.90
16686;DHT22;8456;51.136;4.210;2022-09-09T17:07:55;19.80;99.90
16686;DHT22;8456;51.136;4.210;2022-09-09T17:10:24;19.80;99.90
16686;DHT22;8456;51.136;4.210;2022-09-09T17:12:51;19.90;99.90
16686;DHT22;8456;51.136;4.210;2022-09-09T17:15:17;19.90;99.90
16686;DHT22;8456;51.136;4.210;2022-09-09T17:17:44;19.80;99.90
16686;DHT22;8456;51.136;4.210;2022-09-09T17:20:11;19.80;99.90
16686;DHT22;8456;51.136;4.210;2022-09-09T17:22:37;19.80;99.90
16686;DHT22;8456;51.136;4.210;2022-09-09T17:25:03;19.90;99.90
16686;DHT22;8456;51.136;4.210;2022-09-09T17:27:29;19.90;99.90
16686;DHT22;8456;51.136;4.210;2022-09-09T17:29:57;19.90;99.90
16686;DHT22;8456;51.136;4.210;2022-09-09T17:32:24;20.00;99.90
16686;DHT22;8456;51.136;4.210;2022-09-09T17:34:50;20.00;99.90
16686;DHT22;8456;51.136;4.210;2022-09-09T17:37:16;20.00;99.90
16686;DHT22;8456;51.136;4.210;2022-09-09T17:39:42;19.90;99.90
16686;DHT22;8456;51.136;4.210;2022-09-09T17:42:08;19.80;99.90
16686;DHT22;8456;51.136;4.210;2022-09-09T17:44:34;19.70;99.90
16686;DHT22;8456;51.136;4.210;2022-09-09T17:47:00;19.60;99.90
16686;DHT22;8456;51.136;4.210;2022-09-09T17:49:29;19.60;99.90
16686;DHT22;8456;51.136;4.210;2022-09-09T17:51:55;19.50;99.90
16686;DHT22;8456;51.136;4.210;2022-09-09T17:54:21;19.50;99.90
16686;DHT22;8456;51.136;4.210;2022-09-09T17:56:48;19.50;99.90
16686;DHT22;8456;51.136;4.210;2022-09-09T17:59:15;19.40;99.90
16686;DHT22;8456;51.136;4.210;2022-09-09T18:01:43;19.30;99.90
16686;DHT22;8456;51.136;4.210;2022-09-09T18:04:10;19.30;99.90
16686;DHT22;8456;51.136;4.210;2022-09-09T18:06:48;19.10;99.90
16686;DHT22;8456;51.136;4.210;2022-09-09T18:09:19;18.90;99.90